| Date | Time | Temp. (oF) | Dew Point (oF) | Rel. Hum. (%) | Press. (in.) | Wind Dir. | Wind Speed (mph) | Hourly Rainfall (in.) |
|
|---|---|---|---|---|---|---|---|---|---|
| 1 | 05/31 | 00:00 | 66 | 64 | 95 | 30.04 | ESE | 7 | 0.00 |
| 2 | 05/30 | 23:00 | 67 | 64 | 92 | 30.03 | E | 4 | 0.00 |
| 3 | 05/30 | 22:00 | 69 | 65 | 89 | 30.02 | SSE | 5 | 0.00 |
| 4 | 05/30 | 21:00 | 70 | 66 | 89 | 30.00 | SSE | 4 | 0.00 |
| 5 | 05/30 | 20:00 | 71 | 65 | 84 | 30.00 | S | 5 | 0.00 |
| 6 | 05/30 | 19:00 | 73 | 66 | 81 | 29.99 | SSE | 10 | 0.00 |
| 7 | 05/30 | 18:00 | 76 | 67 | 74 | 29.98 | ESE | 6 | 0.00 |
| 8 | 05/30 | 17:00 | 76 | 67 | 74 | 30.00 | S | 4 | 0.00 |
| 9 | 05/30 | 16:00 | 77 | 77 | 100 | 30.02 | E | 6 | 0.00 |
| 10 | 05/30 | 15:00 | 76 | 68 | 79 | 30.04 | ESE | 4 | 0.00 |
| 11 | 05/30 | 14:00 | 76 | 68 | 77 | 30.05 | SE | 6 | 0.00 |
| 12 | 05/30 | 13:00 | 74 | 69 | 85 | 30.07 | SE | 3 | 0.00 |
| 13 | 05/30 | 12:00 | 75 | 68 | 81 | 30.06 | ESE | 3 | 0.00 |
| 14 | 05/30 | 11:00 | 73 | 68 | 87 | 30.06 | SSE | 3 | 0.00 |
| 15 | 05/30 | 10:00 | 74 | 70 | 88 | 30.06 | NNE | 1 | 0.00 |
| 16 | 05/30 | 09:00 | 70 | 69 | 98 | 30.06 | E | 5 | 0.00 |
| 17 | 05/30 | 08:00 | 68 | 68 | 100 | 30.06 | S | 3 | 0.00 |
| 18 | 05/30 | 07:00 | 66 | 66 | 100 | 30.05 | NE | 1 | 0.00 |
| 19 | 05/30 | 06:00 | 65 | 64 | 100 | 30.03 | NE | 1 | 0.00 |
| 20 | 05/30 | 05:00 | 65 | 64 | 100 | 30.02 | ENE | 1 | 0.00 |
| 21 | 05/30 | 04:00 | 65 | 64 | 100 | 30.00 | SE | 0 | 0.00 |
| 22 | 05/30 | 03:00 | 66 | 66 | 100 | 29.99 | SE | 0 | 0.00 |
| 23 | 05/30 | 02:00 | 67 | 67 | 100 | 29.99 | SE | 1 | 0.00 |
| 24 | 05/30 | 01:00 | 69 | 68 | 99 | 29.99 | SSE | 2 | 0.00 |